Terminal Aerodrome Forecast
Issued by NWS

Home | Current Version | Previous Version | Graphics & Text | Print | Product List | Glossary On
Versions: 1 2 3 4 5 6 7 8 9 10 11 12 13 14 15 16 17 18 19 20 21 22
000
FTUS43 KABR 211738
TAFPIR
TAF
KPIR 211738Z 2118/2218 19006KT P6SM SKC
     FM212100 34008KT P6SM FEW250
     FM220500 03010KT P6SM SCT200
      TEMPO 2206/2209 P6SM -TSRA BKN050CB
     FM221100 04009KT P6SM BKN090
     FM221700 32012KT P6SM BKN100=

USA.gov is the U.S. government's official web portal to all federal, state and local government web resources and services.